Time,TemperatureF,DewpointF,PressureIn,WindDirection,WindDirectionDegrees,WindSpeedMPH,WindSpeedGustMPH,Humidity,HourlyPrecipIn,Conditions,Clouds,dailyrainin,SolarRadiationWatts/m^2,SoftwareType,DateUTC
2013-03-28 14:52:00,50.0,32.0,-100.00,WNW,286,7.0,16.0,49,-99.99,,,0.00,450.000000,,2013-03-28 18:52:00,
2013-03-28 15:02:00,50.0,32.0,-100.00,WNW,286,7.0,16.0,49,-99.99,,,0.00,450.000000,,2013-03-28 19:02:00,
2013-03-28 15:12:00,50.0,32.0,-100.00,WNW,286,7.0,16.0,49,-99.99,,,0.00,450.000000,,2013-03-28 19:12:00,
2013-03-28 15:43:00,48.0,31.0,-100.00,WNW,291,6.0,14.0,52,0.00,,,0.00,399.000000,,2013-03-28 19:43:00,
2013-03-28 15:52:00,48.0,31.0,-100.00,WNW,291,6.0,14.0,52,0.00,,,0.00,399.000000,,2013-03-28 19:52:00,
2013-03-28 16:03:00,48.0,31.0,-100.00,WNW,291,6.0,14.0,52,0.00,,,0.00,399.000000,,2013-03-28 20:03:00,
2013-03-28 16:12:00,48.0,31.0,-100.00,WNW,291,6.0,14.0,52,0.00,,,0.00,399.000000,,2013-03-28 20:12:00,
2013-03-28 16:33:00,49.0,33.0,-100.00,WNW,288,6.0,14.0,54,0.00,,,0.00,265.000000,,2013-03-28 20:33:00,
2013-03-28 16:42:00,49.0,33.0,-100.00,WNW,288,6.0,14.0,54,0.00,,,0.00,265.000000,,2013-03-28 20:42:00,
2013-03-28 16:53:00,49.0,33.0,-100.00,WNW,288,6.0,14.0,54,0.00,,,0.00,265.000000,,2013-03-28 20:53:00,
2013-03-28 17:03:00,49.0,33.0,-100.00,WNW,288,6.0,14.0,54,0.00,,,0.00,265.000000,,2013-03-28 21:03:00,
2013-03-28 17:12:00,49.0,33.0,-100.00,WNW,288,6.0,14.0,54,0.00,,,0.00,265.000000,,2013-03-28 21:12:00,
2013-03-28 17:13:00,47.0,32.0,-100.00,WNW,290,5.0,14.0,56,0.00,,,0.00,184.000000,,2013-03-28 21:13:00,
2013-03-28 17:43:00,47.0,32.0,-100.00,WNW,290,5.0,14.0,56,0.00,,,0.00,184.000000,,2013-03-28 21:43:00,
2013-03-28 17:53:00,47.0,32.0,-100.00,WNW,290,5.0,14.0,56,0.00,,,0.00,184.000000,,2013-03-28 21:53:00,
2013-03-28 18:03:00,47.0,32.0,-100.00,WNW,290,5.0,14.0,56,0.00,,,0.00,184.000000,,2013-03-28 22:03:00,
2013-03-28 18:42:00,45.0,29.0,-100.00,WNW,290,5.0,15.0,54,0.00,,,0.00,152.000000,,2013-03-28 22:42:00,
2013-03-28 18:53:00,45.0,29.0,-100.00,WNW,290,5.0,15.0,54,0.00,,,0.00,152.000000,,2013-03-28 22:53:00,
2013-03-28 19:03:00,45.0,29.0,-100.00,WNW,290,5.0,15.0,54,0.00,,,0.00,152.000000,,2013-03-28 23:03:00,
2013-03-28 19:12:00,45.0,29.0,-100.00,WNW,290,5.0,15.0,54,0.00,,,0.00,152.000000,,2013-03-28 23:12:00,
2013-03-28 19:32:00,43.0,29.0,-100.00,WNW,296,4.0,12.0,58,0.00,,,0.00,43.000000,,2013-03-28 23:32:00,
2013-03-28 19:42:00,43.0,29.0,-100.00,WNW,296,4.0,12.0,58,0.00,,,0.00,43.000000,,2013-03-28 23:42:00,
2013-03-28 19:53:00,43.0,29.0,-100.00,WNW,296,4.0,12.0,58,0.00,,,0.00,43.000000,,2013-03-28 23:53:00,
2013-03-28 20:02:00,43.0,29.0,-100.00,WNW,296,4.0,12.0,58,0.00,,,0.00,43.000000,,2013-03-29 00:02:00,
2013-03-28 20:12:00,43.0,29.0,-100.00,WNW,296,4.0,12.0,58,0.00,,,0.00,43.000000,,2013-03-29 00:12:00,
2013-03-28 21:33:00,42.0,30.0,-100.00,WNW,284,4.0,9.0,62,-99.99,,,-99.99,0.000000,,2013-03-29 01:33:00,
2013-03-28 21:42:00,42.0,30.0,-100.00,WNW,284,4.0,9.0,62,-99.99,,,-99.99,0.000000,,2013-03-29 01:42:00,
2013-03-28 21:52:00,42.0,30.0,-100.00,WNW,284,4.0,9.0,62,-99.99,,,-99.99,0.000000,,2013-03-29 01:52:00,
2013-03-28 22:03:00,42.0,30.0,-100.00,WNW,284,4.0,9.0,62,-99.99,,,-99.99,0.000000,,2013-03-29 02:03:00,
2013-03-28 22:12:00,42.0,30.0,-100.00,WNW,284,4.0,9.0,62,-99.99,,,-99.99,0.000000,,2013-03-29 02:12:00,
2013-03-28 22:42:00,41.0,30.0,-100.00,WNW,295,3.0,7.0,65,0.00,,,-99.99,0.000000,,2013-03-29 02:42:00,
2013-03-28 22:53:00,41.0,30.0,-100.00,WNW,295,3.0,7.0,65,0.00,,,-99.99,0.000000,,2013-03-29 02:53:00,
2013-03-28 23:02:00,41.0,30.0,-100.00,WNW,295,3.0,7.0,65,0.00,,,-99.99,0.000000,,2013-03-29 03:02:00,
2013-03-28 23:12:00,41.0,30.0,-100.00,WNW,295,3.0,7.0,65,0.00,,,-99.99,0.000000,,2013-03-29 03:12:00,
2013-03-28 23:13:00,41.0,31.0,-100.00,WNW,296,3.0,9.0,67,0.00,,,-99.99,0.000000,,2013-03-29 03:13:00,
2013-03-28 23:43:00,41.0,31.0,-100.00,WNW,296,3.0,9.0,67,0.00,,,-99.99,0.000000,,2013-03-29 03:43:00,
2013-03-28 23:53:00,41.0,31.0,-100.00,WNW,296,3.0,9.0,67,0.00,,,-99.99,0.000000,,2013-03-29 03:53:00,